Time;durP1;ratioP1;P1;durP2;ratioP2;P2;SDS_P1;SDS_P2;PMS_P1;PMS_P2;Temp;Humidity;BMP_temperature;BMP_pressure;BME280_temperature;BME280_humidity;BME280_pressure;Samples;Min_cycle;Max_cycle;Signal;HPM_P1;HPM_P2
2022/07/25 00:02:20;;;;;;;9.43;3.83;;;;;;;13.57;65.98;100458.71;2175000;80;21017;-72
2022/07/25 00:05:21;;;;;;;16.67;4.10;;;;;;;13.57;65.97;100448.05;2180749;81;21019;-72
2022/07/25 00:08:23;;;;;;;4.72;3.45;;;;;;;13.56;65.87;100445.06;2179822;81;20985;-72
2022/07/25 00:11:24;;;;;;;5.22;3.25;;;;;;;13.56;65.85;100443.73;2172118;81;21573;-73
2022/07/25 00:14:25;;;;;;;7.50;3.55;;;;;;;13.53;65.96;100446.25;2167714;82;21004;-72
2022/07/25 00:17:26;;;;;;;6.67;3.75;;;;;;;13.52;66.07;100455.77;2168492;82;21645;-72
2022/07/25 00:20:27;;;;;;;8.38;3.72;;;;;;;13.49;66.34;100454.29;2171706;80;21116;-72
2022/07/25 00:23:28;;;;;;;11.00;4.55;;;;;;;13.47;66.33;100454.14;2110816;84;21044;-72
2022/07/25 00:26:29;;;;;;;11.25;3.60;;;;;;;13.42;66.48;100451.99;2166987;82;21050;-73
2022/07/25 00:29:30;;;;;;;7.05;3.35;;;;;;;13.36;66.39;100446.87;2112049;84;21564;-73
2022/07/25 00:32:32;;;;;;;6.67;3.27;;;;;;;13.33;66.55;100446.40;2110436;84;21010;-72
2022/07/25 00:35:33;;;;;;;5.53;3.40;;;;;;;13.29;66.52;100440.60;2169364;82;20954;-72
2022/07/25 00:38:34;;;;;;;10.78;4.72;;;;;;;13.33;66.66;100442.41;2169697;81;20983;-73
2022/07/25 00:41:36;;;;;;;6.03;3.50;;;;;;;13.30;66.86;100438.25;2165398;82;21064;-72
2022/07/25 00:44:37;;;;;;;8.05;3.72;;;;;;;13.25;66.95;100437.91;2170371;82;21027;-73
2022/07/25 00:47:38;;;;;;;7.67;4.12;;;;;;;13.22;67.03;100440.94;2172755;82;22205;-73
2022/07/25 00:50:39;;;;;;;6.33;4.20;;;;;;;13.18;66.87;100444.97;2163569;82;21429;-72
2022/07/25 00:53:40;;;;;;;7.00;3.90;;;;;;;13.11;67.29;100446.66;2114197;84;21060;-73
2022/07/25 00:56:42;;;;;;;11.65;3.87;;;;;;;12.95;67.80;100443.09;2171929;82;21038;-72
2022/07/25 00:59:43;;;;;;;8.08;4.20;;;;;;;12.86;67.86;100447.28;2109109;83;21066;-72
2022/07/25 01:02:45;;;;;;;9.13;4.03;;;;;;;12.83;68.09;100444.47;2168270;81;21030;-72
2022/07/25 01:05:49;;;;;;;8.63;3.50;;;;;;;12.86;67.97;100441.45;2108773;84;21738;-72
2022/07/25 01:08:50;;;;;;;8.58;4.22;;;;;;;12.85;67.94;100434.48;2162872;81;21027;-73
2022/07/25 01:11:51;;;;;;;7.37;4.10;;;;;;;12.82;67.78;100428.17;2140603;82;21082;-73
2022/07/25 01:14:52;;;;;;;10.50;4.45;;;;;;;12.76;68.06;100435.02;2163509;82;21116;-72
2022/07/25 01:17:54;;;;;;;5.05;3.55;;;;;;;12.68;68.33;100426.23;2159122;82;20996;-73
2022/07/25 01:20:55;;;;;;;14.07;4.70;;;;;;;12.66;68.27;100431.72;2166116;82;21027;-72
2022/07/25 01:23:56;;;;;;;6.45;3.25;;;;;;;12.71;68.55;100433.87;2159370;82;21356;-72
2022/07/25 01:26:57;;;;;;;6.60;4.08;;;;;;;12.71;68.45;100432.55;2163783;81;21063;-72
2022/07/25 01:29:58;;;;;;;8.80;3.17;;;;;;;12.67;68.68;100428.55;2159993;82;21043;-73
2022/07/25 01:32:59;;;;;;;8.38;3.90;;;;;;;12.72;68.37;100421.70;2160653;82;21029;-72
2022/07/25 01:36:00;;;;;;;10.58;4.35;;;;;;;12.75;68.27;100419.20;2159988;82;21071;-72
2022/07/25 01:39:02;;;;;;;8.73;3.75;;;;;;;12.74;68.26;100417.55;2157318;82;21039;-72
2022/07/25 01:42:03;;;;;;;6.95;3.72;;;;;;;12.69;67.99;100412.73;2157752;82;21023;-72
2022/07/25 01:45:06;;;;;;;6.17;3.92;;;;;;;12.65;68.33;100412.77;2162652;82;21066;-73
2022/07/25 01:48:08;;;;;;;6.53;3.72;;;;;;;12.69;68.43;100411.91;2159185;82;21502;-72
2022/07/25 01:51:09;;;;;;;6.75;3.30;;;;;;;12.67;68.30;100403.27;2161326;81;21431;-72
2022/07/25 01:54:10;;;;;;;6.22;3.90;;;;;;;12.60;68.17;100406.30;2159549;82;21438;-72
2022/07/25 01:57:11;;;;;;;6.92;4.20;;;;;;;12.50;68.54;100402.50;2158178;82;21035;-72
2022/07/25 02:00:15;;;;;;;8.60;4.15;;;;;;;12.44;68.28;100396.54;2157683;81;21061;-72
2022/07/25 02:03:31;;;;;;;6.75;4.03;;;;;;;12.48;68.64;100389.89;2149260;82;21108;-73
2022/07/25 02:06:33;;;;;;;9.70;3.92;;;;;;;12.53;68.70;100383.05;2162527;82;21034;-72
2022/07/25 02:09:34;;;;;;;7.78;3.42;;;;;;;12.60;68.44;100387.67;2162856;81;21031;-72
2022/07/25 02:12:36;;;;;;;6.50;3.58;;;;;;;12.59;68.41;100378.86;2201444;80;20987;-72
2022/07/25 02:15:37;;;;;;;5.20;3.10;;;;;;;12.51;68.23;100385.04;2203859;80;21132;-72
2022/07/25 02:18:38;;;;;;;6.15;4.05;;;;;;;12.50;68.37;100386.05;2173636;81;21006;-72
2022/07/25 02:21:39;;;;;;;5.08;3.65;;;;;;;12.40;68.21;100384.09;2172072;82;21061;-72
2022/07/25 02:24:40;;;;;;;8.43;4.12;;;;;;;12.35;68.45;100383.77;2168400;82;21010;-72
2022/07/25 02:27:41;;;;;;;5.55;3.50;;;;;;;12.33;68.54;100385.28;2171079;81;20998;-72
2022/07/25 02:30:43;;;;;;;6.08;3.40;;;;;;;12.32;68.46;100382.78;2168887;82;21469;-72
2022/07/25 02:33:44;;;;;;;5.28;3.08;;;;;;;12.37;68.50;100387.09;2164217;81;21527;-72
2022/07/25 02:36:45;;;;;;;9.13;3.98;;;;;;;12.34;68.38;100382.12;2168319;82;21562;-72
2022/07/25 02:39:46;;;;;;;4.92;3.55;;;;;;;12.37;68.63;100379.62;2167003;82;21528;-72
2022/07/25 02:42:47;;;;;;;5.65;3.50;;;;;;;12.40;68.65;100380.09;2169380;81;21002;-72
2022/07/25 02:45:48;;;;;;;7.72;3.75;;;;;;;12.35;68.37;100391.75;2170146;81;21843;-72
2022/07/25 02:48:49;;;;;;;7.40;4.40;;;;;;;12.26;68.34;100392.78;2171135;81;21007;-72
2022/07/25 02:51:50;;;;;;;7.00;5.10;;;;;;;12.19;68.36;100389.13;2171030;81;22184;-73
2022/07/25 02:54:51;;;;;;;6.45;4.10;;;;;;;12.07;68.49;100393.48;2173178;81;20983;-73
2022/07/25 02:57:58;;;;;;;9.00;4.45;;;;;;;12.04;68.61;100393.83;2167342;81;21051;-72
2022/07/25 03:00:59;;;;;;;7.83;4.75;;;;;;;12.05;68.89;100394.65;2168741;81;21470;-73
2022/07/25 03:04:00;;;;;;;6.80;4.80;;;;;;;11.98;69.26;100392.35;2169848;81;21019;-73
2022/07/25 03:07:01;;;;;;;9.33;4.83;;;;;;;11.85;69.86;100391.05;2168546;81;21046;-72
2022/07/25 03:10:06;;;;;;;6.45;4.35;;;;;;;11.78;69.93;100391.34;2164988;81;21604;-72
2022/07/25 03:13:07;;;;;;;5.95;4.37;;;;;;;11.76;70.27;100379.22;2170055;81;21550;-72
2022/07/25 03:16:09;;;;;;;8.40;4.90;;;;;;;11.76;70.16;100380.55;2171606;81;20988;-72
2022/07/25 03:19:11;;;;;;;8.38;4.42;;;;;;;11.77;70.48;100375.55;2166295;81;21013;-72
2022/07/25 03:22:12;;;;;;;5.55;4.33;;;;;;;11.81;70.64;100372.41;2167615;81;21027;-72
2022/07/25 03:25:13;;;;;;;7.47;4.53;;;;;;;11.90;70.59;100377.23;2167775;81;21060;-73
2022/07/25 03:28:14;;;;;;;5.67;4.30;;;;;;;11.97;70.51;100376.91;2163391;81;21466;-73
2022/07/25 03:31:15;;;;;;;7.65;4.50;;;;;;;12.03;70.55;100368.75;2167519;81;21554;-72
2022/07/25 03:34:16;;;;;;;7.33;4.60;;;;;;;12.10;70.36;100373.19;2165795;81;21097;-73
2022/07/25 03:37:18;;;;;;;8.00;5.17;;;;;;;12.18;70.24;100361.70;2167528;81;21061;-72
2022/07/25 03:40:19;;;;;;;7.28;4.40;;;;;;;12.24;70.25;100365.52;2158239;82;21475;-72
2022/07/25 03:43:20;;;;;;;5.62;4.35;;;;;;;12.40;70.46;100371.29;2153044;81;21045;-72
2022/07/25 03:46:22;;;;;;;6.22;4.60;;;;;;;12.67;70.62;100365.99;2238940;78;20939;-73
2022/07/25 03:49:23;;;;;;;7.05;4.40;;;;;;;12.97;70.38;100367.00;2235373;78;21064;-72
2022/07/25 03:52:24;;;;;;;7.20;4.83;;;;;;;13.30;70.31;100370.30;2238797;78;21004;-72
2022/07/25 03:55:25;;;;;;;8.00;4.72;;;;;;;13.68;70.09;100364.97;2238260;78;21009;-72
2022/07/25 03:58:26;;;;;;;13.60;5.62;;;;;;;14.05;70.06;100362.78;2244205;78;21959;-72
2022/07/25 04:01:27;;;;;;;9.65;4.62;;;;;;;14.50;69.68;100358.25;2210514;79;22607;-73
2022/07/25 04:04:28;;;;;;;6.97;4.92;;;;;;;14.98;69.33;100353.80;2236722;78;21040;-73
2022/07/25 04:07:29;;;;;;;6.45;5.17;;;;;;;15.45;68.90;100347.02;2241740;78;21017;-72
2022/07/25 04:10:31;;;;;;;7.97;4.90;;;;;;;15.96;68.34;100348.14;2242077;78;21080;-73
2022/07/25 04:13:33;;;;;;;6.12;4.67;;;;;;;16.44;67.98;100342.83;2219733;78;21026;-73
2022/07/25 04:16:34;;;;;;;7.60;4.80;;;;;;;16.87;67.36;100345.30;2203387;79;21050;-73
2022/07/25 04:19:35;;;;;;;6.12;4.92;;;;;;;17.30;66.67;100346.81;2213339;80;21021;-73
2022/07/25 04:22:36;;;;;;;5.42;4.62;;;;;;;17.66;66.10;100342.37;2210427;80;21009;-73
2022/07/25 04:25:38;;;;;;;5.72;4.35;;;;;;;18.09;65.75;100345.42;2210990;80;21485;-72
2022/07/25 04:28:39;;;;;;;5.28;4.20;;;;;;;18.38;64.96;100336.55;2209216;80;21024;-73
2022/07/25 04:31:40;;;;;;;6.35;4.33;;;;;;;18.58;64.33;100333.77;2207034;80;20990;-73
2022/07/25 04:34:43;;;;;;;5.95;4.28;;;;;;;18.97;64.26;100326.04;2206883;79;21058;-73
2022/07/25 04:37:44;;;;;;;8.80;4.62;;;;;;;19.46;63.12;100316.38;2211260;80;21029;-73
2022/07/25 04:40:46;;;;;;;8.68;4.97;;;;;;;19.65;62.25;100320.44;2210497;80;20959;-73
2022/07/25 04:43:47;;;;;;;6.72;4.62;;;;;;;19.72;61.56;100317.73;2207555;80;21044;-73
2022/07/25 04:46:48;;;;;;;7.33;4.65;;;;;;;19.77;61.54;100316.55;2212437;80;22151;-73
2022/07/25 04:49:49;;;;;;;4.95;4.33;;;;;;;20.02;60.58;100313.78;2210832;80;22155;-73
2022/07/25 04:52:50;;;;;;;8.78;4.47;;;;;;;20.15;60.63;100311.76;2207681;80;21543;-73
2022/07/25 04:55:51;;;;;;;4.45;4.05;;;;;;;20.38;60.00;100307.55;2206858;80;21342;-73
2022/07/25 04:58:52;;;;;;;7.03;4.37;;;;;;;20.41;59.09;100305.75;2209071;80;20932;-73
2022/07/25 05:01:53;;;;;;;5.30;4.10;;;;;;;20.18;59.11;100305.63;2208820;80;21025;-73
2022/07/25 05:04:54;;;;;;;7.25;4.85;;;;;;;20.30;59.34;100306.02;2210864;80;21072;-71
2022/07/25 05:07:59;;;;;;;7.45;4.70;;;;;;;20.57;59.15;100300.30;2207835;80;21040;-72
2022/07/25 05:11:00;;;;;;;5.20;4.25;;;;;;;20.66;58.64;100299.45;2207669;80;20974;-72
2022/07/25 05:14:04;;;;;;;6.40;4.10;;;;;;;21.02;58.23;100300.67;2219295;79;21466;-72
2022/07/25 05:17:06;;;;;;;4.83;3.98;;;;;;;21.46;58.35;100291.80;2235395;79;21063;-72
2022/07/25 05:20:09;;;;;;;6.20;4.20;;;;;;;21.58;57.49;100297.20;2223700;79;21456;-72
2022/07/25 05:23:10;;;;;;;5.10;4.20;;;;;;;21.44;57.25;100284.46;2219064;79;21011;-71
2022/07/25 05:26:11;;;;;;;10.05;4.00;;;;;;;22.02;57.49;100288.69;2224409;77;21019;-72
2022/07/25 05:29:12;;;;;;;6.17;3.80;;;;;;;22.79;56.75;100290.52;2220188;79;21523;-72
2022/07/25 05:32:14;;;;;;;4.70;3.50;;;;;;;23.38;55.70;100287.47;2227574;79;21009;-73
2022/07/25 05:35:15;;;;;;;4.15;3.60;;;;;;;23.89;54.95;100282.81;2226387;79;20976;-72
2022/07/25 05:38:17;;;;;;;4.75;4.17;;;;;;;24.18;54.02;100282.62;2224468;79;20966;-73
2022/07/25 05:41:18;;;;;;;8.45;3.55;;;;;;;24.44;53.30;100266.16;2227591;79;21053;-73
2022/07/25 05:44:19;;;;;;;6.08;4.05;;;;;;;24.33;52.42;100268.45;2202494;79;21420;-73
2022/07/25 05:47:20;;;;;;;6.90;3.80;;;;;;;24.09;52.45;100260.56;2224930;79;20978;-73
2022/07/25 05:50:22;;;;;;;8.20;3.87;;;;;;;24.27;52.56;100264.86;2227053;79;21557;-73
2022/07/25 05:53:23;;;;;;;4.72;3.20;;;;;;;24.71;52.04;100262.62;2225380;79;20973;-73
2022/07/25 05:56:24;;;;;;;3.40;3.00;;;;;;;24.76;50.62;100262.12;2228194;79;21362;-74
2022/07/25 05:59:27;;;;;;;5.05;3.40;;;;;;;24.77;50.80;100256.16;2228420;79;21502;-71
2022/07/25 06:02:28;;;;;;;5.12;3.50;;;;;;;25.00;49.24;100255.84;2222268;79;20955;-72
2022/07/25 06:05:29;;;;;;;4.53;2.75;;;;;;;25.24;48.42;100254.14;2223444;79;21546;-73
2022/07/25 06:08:32;;;;;;;5.33;3.35;;;;;;;25.29;47.80;100256.09;2223905;79;20958;-73
2022/07/25 06:11:33;;;;;;;4.58;3.10;;;;;;;25.27;47.83;100256.34;2225791;79;21035;-73
2022/07/25 06:14:34;;;;;;;9.18;3.30;;;;;;;25.40;46.88;100256.44;2234328;78;21315;-72
2022/07/25 06:17:35;;;;;;;7.25;3.15;;;;;;;25.43;46.00;100264.88;2234116;78;21025;-72
2022/07/25 06:20:36;;;;;;;6.30;3.02;;;;;;;25.72;46.67;100263.95;2236831;78;21049;-73
2022/07/25 06:23:38;;;;;;;4.78;3.15;;;;;;;26.00;45.72;100260.58;2234206;78;21000;-74
2022/07/25 06:26:39;;;;;;;4.72;2.98;;;;;;;26.06;45.37;100260.87;2241328;78;20946;-73
2022/07/25 06:29:40;;;;;;;4.65;3.05;;;;;;;26.32;45.68;100257.69;2232959;78;21033;-73
2022/07/25 06:32:41;;;;;;;4.28;3.10;;;;;;;26.66;44.75;100252.36;2236631;78;20986;-75
2022/07/25 06:35:42;;;;;;;5.72;3.25;;;;;;;27.10;44.57;100243.12;2236241;78;21504;-74
2022/07/25 06:38:43;;;;;;;3.33;2.80;;;;;;;27.28;43.33;100239.03;2237683;78;21056;-74
2022/07/25 06:41:44;;;;;;;5.22;2.72;;;;;;;27.53;44.02;100239.53;2237342;78;20998;-74
2022/07/25 06:44:47;;;;;;;4.05;2.52;;;;;;;27.93;42.83;100239.16;2238883;78;21080;-74
2022/07/25 06:47:49;;;;;;;5.35;2.50;;;;;;;28.22;43.28;100225.66;2232668;79;20962;-74
2022/07/25 06:50:51;;;;;;;5.15;2.47;;;;;;;28.31;40.98;100228.61;2238845;78;21025;-74
2022/07/25 06:53:52;;;;;;;5.60;2.50;;;;;;;28.20;40.71;100228.41;2233917;78;21024;-75
2022/07/25 06:56:54;;;;;;;3.30;2.00;;;;;;;28.04;38.65;100223.56;2240126;78;21008;-76
2022/07/25 06:59:55;;;;;;;4.87;2.58;;;;;;;27.61;39.26;100223.98;2238690;78;21020;-74
2022/07/25 07:03:01;;;;;;;2.60;2.30;;;;;;;27.38;39.29;100223.23;2237035;78;21456;-73
2022/07/25 07:06:03;;;;;;;3.27;2.22;;;;;;;27.07;38.24;100206.91;2238918;78;20997;-75
2022/07/25 07:09:04;;;;;;;5.05;2.52;;;;;;;26.82;38.30;100215.35;2195868;80;21414;-75
2022/07/25 07:12:05;;;;;;;4.70;2.50;;;;;;;26.85;39.68;100207.73;2237699;78;21619;-74
2022/07/25 07:15:07;;;;;;;4.80;2.08;;;;;;;27.19;39.85;100206.64;2237982;78;20994;-75
2022/07/25 07:18:09;;;;;;;4.12;2.92;;;;;;;27.25;39.15;100208.27;2234738;78;21468;-73
2022/07/25 07:21:10;;;;;;;3.42;2.10;;;;;;;27.40;38.98;100206.89;2238461;78;21777;-74
2022/07/25 07:24:11;;;;;;;6.05;2.50;;;;;;;27.85;39.06;100207.04;2243664;78;21014;-69
2022/07/25 07:27:12;;;;;;;3.22;2.40;;;;;;;28.12;37.39;100199.80;2237734;78;20981;-72
2022/07/25 07:30:15;;;;;;;3.02;2.30;;;;;;;27.85;37.13;100198.86;2234785;79;21053;-77
2022/07/25 07:33:16;;;;;;;2.42;1.98;;;;;;;27.91;35.95;100193.09;2235060;78;21391;-73
2022/07/25 07:36:17;;;;;;;4.92;2.33;;;;;;;27.84;37.54;100187.67;2208333;78;21436;-72
2022/07/25 07:39:19;;;;;;;3.27;2.27;;;;;;;28.22;37.00;100188.03;2192723;80;21113;-73
2022/07/25 07:42:20;;;;;;;2.70;2.00;;;;;;;28.42;37.37;100187.91;2192435;80;20955;-73
2022/07/25 07:45:27;;;;;;;3.47;2.45;;;;;;;28.38;36.45;100176.73;2191558;80;21045;-73
2022/07/25 07:48:29;;;;;;;5.70;2.42;;;;;;;28.51;36.38;100175.84;2194349;80;21030;-75
2022/07/25 07:51:30;;;;;;;4.95;2.12;;;;;;;28.50;35.76;100176.95;2193133;80;21009;-72
2022/07/25 07:57:51;;;;;;;3.62;2.15;;;;;;;28.75;35.76;100162.28;2151909;82;21045;-72
2022/07/25 08:00:53;;;;;;;2.02;1.82;;;;;;;28.76;35.42;100157.08;2194209;80;20999;-72
2022/07/25 08:03:54;;;;;;;3.08;1.90;;;;;;;28.81;33.87;100151.58;2181399;80;21068;-73
2022/07/25 08:06:58;;;;;;;3.72;2.10;;;;;;;28.80;33.28;100147.20;2181298;80;21002;-72
2022/07/25 08:10:00;;;;;;;1.82;1.72;;;;;;;28.82;34.26;100147.73;2180340;81;21079;-71
2022/07/25 08:13:21;;;;;;;4.08;1.82;;;;;;;28.90;33.17;100147.11;2178579;81;21050;-73
2022/07/25 08:16:22;;;;;;;3.02;2.12;;;;;;;28.89;33.89;100144.12;2179917;80;21521;-75
2022/07/25 08:19:24;;;;;;;2.65;1.90;;;;;;;29.03;32.41;100141.53;2177971;80;21075;-73
2022/07/25 08:22:44;;;;;;;2.80;2.10;;;;;;;29.15;31.22;100139.24;2178892;80;21065;-73
2022/07/25 08:25:46;;;;;;;3.90;1.98;;;;;;;28.90;30.83;100138.11;2175341;81;21121;-74
2022/07/25 08:28:47;;;;;;;1.85;1.67;;;;;;;28.85;32.29;100137.59;2180479;80;21548;-74
2022/07/25 08:31:48;;;;;;;2.47;1.90;;;;;;;28.88;31.54;100139.75;2175263;80;21083;-74
2022/07/25 08:34:49;;;;;;;4.28;1.80;;;;;;;28.92;31.09;100131.78;2181680;81;21541;-74
2022/07/25 08:37:52;;;;;;;4.22;1.92;;;;;;;29.03;30.96;100138.80;2177862;81;21988;-74
2022/07/25 08:40:55;;;;;;;2.15;1.80;;;;;;;29.12;31.31;100134.91;2177129;80;21438;-74
2022/07/25 08:43:56;;;;;;;3.67;2.45;;;;;;;29.18;30.41;100137.29;2177258;81;20944;-74
2022/07/25 08:46:59;;;;;;;2.20;1.77;;;;;;;29.26;31.12;100127.09;2176232;81;21028;-74
2022/07/25 08:50:08;;;;;;;4.08;2.02;;;;;;;29.23;29.64;100123.58;2179081;81;21062;-74
2022/07/25 08:53:10;;;;;;;2.35;1.57;;;;;;;29.21;30.40;100129.07;2124572;81;22411;-74
2022/07/25 08:56:11;;;;;;;2.60;1.80;;;;;;;29.21;29.70;100126.34;2180095;80;21656;-74
2022/07/25 08:59:12;;;;;;;7.40;2.30;;;;;;;29.16;29.11;100122.30;2180207;80;21009;-74
2022/07/25 09:02:14;;;;;;;1.75;1.60;;;;;;;29.27;29.99;100118.34;2176694;81;21445;-74
2022/07/25 09:05:18;;;;;;;2.12;1.87;;;;;;;29.66;30.58;100113.24;2179327;80;21019;-74
2022/07/25 09:08:19;;;;;;;4.00;2.17;;;;;;;30.17;29.00;100102.92;2176632;81;21090;-74
2022/07/25 09:11:31;;;;;;;2.33;1.80;;;;;;;30.23;30.50;100086.70;2181176;81;20984;-75
2022/07/25 09:14:43;;;;;;;2.12;1.92;;;;;;;30.14;29.21;100106.25;2179563;81;21028;-74
2022/07/25 09:17:50;;;;;;;2.17;1.55;;;;;;;30.18;28.90;100100.98;2178535;80;21023;-74
2022/07/25 09:20:58;;;;;;;2.33;1.92;;;;;;;30.25;28.39;100089.16;2180866;81;21569;-74
2022/07/25 09:24:16;;;;;;;2.35;1.72;;;;;;;30.39;28.54;100092.75;2180975;81;20999;-74
2022/07/25 09:27:17;;;;;;;2.08;1.50;;;;;;;30.44;29.11;100098.14;2180697;81;21076;-74
2022/07/25 09:30:19;;;;;;;2.05;1.80;;;;;;;30.69;28.88;100094.15;2179898;80;20975;-74
2022/07/25 09:33:22;;;;;;;1.87;1.47;;;;;;;30.66;28.39;100085.14;2180624;80;20980;-74
2022/07/25 09:36:24;;;;;;;2.15;1.77;;;;;;;30.84;27.66;100082.69;2177983;80;21103;-74
2022/07/25 09:39:46;;;;;;;4.28;1.92;;;;;;;30.88;28.24;100074.10;2181079;80;21031;-74
2022/07/25 09:42:51;;;;;;;4.75;1.50;;;;;;;30.94;28.90;100080.54;2178228;80;21049;-74
2022/07/25 09:45:52;;;;;;;1.80;1.67;;;;;;;30.78;28.83;100080.56;2182959;81;21057;-74
2022/07/25 09:48:57;;;;;;;3.17;1.82;;;;;;;30.86;27.93;100084.01;2177225;80;20974;-74
2022/07/25 09:51:58;;;;;;;4.25;1.90;;;;;;;30.81;27.37;100073.95;2179616;81;21522;-74
2022/07/25 09:55:03;;;;;;;2.40;1.52;;;;;;;30.83;27.70;100076.37;2179592;81;21074;-74
2022/07/25 09:58:05;;;;;;;1.62;1.35;;;;;;;30.98;27.69;100065.13;2181676;81;21020;-74
2022/07/25 10:01:07;;;;;;;3.70;1.45;;;;;;;31.22;27.26;100069.58;2181073;80;21045;-74
2022/07/25 10:04:26;;;;;;;2.00;1.50;;;;;;;31.38;26.04;100072.85;2146241;81;21050;-74
2022/07/25 10:07:27;;;;;;;1.67;1.40;;;;;;;31.34;26.17;100056.19;2176990;81;21494;-74
2022/07/25 10:10:33;;;;;;;2.30;1.70;;;;;;;31.39;26.07;100050.59;2181142;81;21007;-74
2022/07/25 10:13:37;;;;;;;3.12;1.72;;;;;;;31.60;25.49;100042.75;2144787;81;21087;-74
2022/07/25 10:16:46;;;;;;;2.98;1.32;;;;;;;31.45;26.28;100039.80;2171010;82;21086;-74
2022/07/25 10:19:48;;;;;;;2.02;1.30;;;;;;;31.49;25.82;100048.21;2108265;84;20992;-72
2022/07/25 10:22:49;;;;;;;3.60;1.57;;;;;;;31.33;26.47;100038.66;2108200;84;20964;-73
2022/07/25 10:26:07;;;;;;;1.30;1.20;;;;;;;31.44;25.37;100038.16;2167037;82;21083;-73
2022/07/25 10:29:11;;;;;;;2.00;1.67;;;;;;;31.47;25.79;100035.36;2168672;82;21652;-73
2022/07/25 10:32:13;;;;;;;3.17;1.50;;;;;;;31.24;25.81;100025.68;2165150;82;21051;-73
2022/07/25 10:35:18;;;;;;;2.75;1.60;;;;;;;31.24;26.06;100032.53;2169340;81;21732;-73
2022/07/25 10:38:27;;;;;;;5.17;1.60;;;;;;;31.23;24.87;100018.59;2164516;82;21026;-73
2022/07/25 10:41:29;;;;;;;1.95;1.50;;;;;;;31.27;25.93;100018.22;2169720;82;21556;-73
2022/07/25 10:44:49;;;;;;;3.30;1.50;;;;;;;31.22;24.74;100008.73;2169248;81;20954;-73
2022/07/25 10:47:54;;;;;;;3.33;1.27;;;;;;;31.18;25.36;100002.81;2145753;82;21019;-73
2022/07/25 10:51:06;;;;;;;2.65;1.52;;;;;;;31.39;25.45;100005.38;2164854;81;21039;-74
2022/07/25 10:54:16;;;;;;;2.77;1.40;;;;;;;31.64;24.61;99995.75;2175120;81;20983;-73
2022/07/25 10:57:17;;;;;;;4.30;1.30;;;;;;;31.80;25.71;99998.14;2168710;81;21051;-73
2022/07/25 11:00:19;;;;;;;1.62;1.45;;;;;;;31.70;24.01;99984.91;2166090;81;20970;-73
2022/07/25 11:03:20;;;;;;;1.52;1.42;;;;;;;31.46;24.13;99981.66;2113107;84;21053;-72
2022/07/25 11:06:35;;;;;;;4.62;1.47;;;;;;;31.51;24.71;99976.06;2170163;82;21541;-73
2022/07/25 11:09:37;;;;;;;2.90;1.20;;;;;;;31.60;24.29;99973.39;2169723;81;21051;-73
2022/07/25 11:12:45;;;;;;;1.40;1.30;;;;;;;31.66;24.74;99978.44;2171193;82;21074;-73
2022/07/25 11:15:46;;;;;;;2.50;1.40;;;;;;;31.59;24.53;99973.13;2178997;81;21640;-73
2022/07/25 11:18:48;;;;;;;1.32;1.22;;;;;;;31.72;23.42;99968.16;2158199;81;20976;-73
2022/07/25 11:21:57;;;;;;;1.32;1.17;;;;;;;31.76;24.32;99957.36;2161434;81;21595;-73
2022/07/25 11:25:00;;;;;;;1.50;1.40;;;;;;;32.05;24.50;99958.32;2204710;79;21565;-74
2022/07/25 11:28:02;;;;;;;6.35;2.45;;;;;;;31.86;24.25;99954.38;2195395;80;20971;-73
2022/07/25 11:31:04;;;;;;;2.17;1.37;;;;;;;31.67;24.89;99948.51;2165238;82;21065;-73
2022/07/25 11:34:06;;;;;;;2.20;1.30;;;;;;;31.65;24.72;99934.32;2159837;81;21463;-73
2022/07/25 11:37:10;;;;;;;2.87;1.35;;;;;;;31.80;25.01;99937.80;2185921;80;21632;-73
2022/07/25 11:40:15;;;;;;;3.00;1.40;;;;;;;31.76;24.69;99931.30;2153301;80;20986;-73
2022/07/25 11:43:22;;;;;;;4.58;1.47;;;;;;;31.97;25.39;99928.33;2182705;80;21051;-76
2022/07/25 11:46:24;;;;;;;2.90;1.20;;;;;;;32.23;25.31;99911.98;2184311;80;21510;-76
2022/07/25 11:49:26;;;;;;;2.87;1.57;;;;;;;32.14;24.09;99909.20;2155731;80;21629;-76
2022/07/25 11:52:34;;;;;;;1.32;1.17;;;;;;;32.05;24.57;99902.87;2189003;80;21062;-76
2022/07/25 11:55:42;;;;;;;1.20;1.12;;;;;;;32.07;24.55;99897.89;2185371;80;21704;-76
2022/07/25 11:58:42;;;;;;;1.65;1.40;;;;;;;32.14;24.40;99894.11;2183861;80;21098;-76
2022/07/25 12:01:44;;;;;;;2.05;1.40;;;;;;;32.11;24.33;99894.75;2185351;80;20966;-76
2022/07/25 12:05:01;;;;;;;2.55;1.30;;;;;;;32.19;24.27;99885.52;2185710;80;20969;-76
2022/07/25 12:08:22;;;;;;;4.37;1.30;;;;;;;31.98;23.96;99880.55;2181355;80;21557;-76
2022/07/25 12:11:23;;;;;;;3.22;1.45;;;;;;;31.81;24.80;99880.44;2186537;80;21039;-76
2022/07/25 12:14:24;;;;;;;1.67;1.32;;;;;;;31.91;23.91;99879.64;2182312;80;20972;-76
2022/07/25 12:17:25;;;;;;;1.80;1.45;;;;;;;31.75;23.50;99885.81;2177196;81;21025;-76
2022/07/25 12:20:30;;;;;;;3.30;1.57;;;;;;;31.76;24.09;99872.34;2179605;81;21034;-76
2022/07/25 12:23:32;;;;;;;1.30;1.20;;;;;;;31.98;25.20;99864.09;2180512;81;21031;-76
2022/07/25 12:26:33;;;;;;;5.97;1.60;;;;;;;31.86;23.63;99861.11;2177268;81;22279;-76
2022/07/25 12:29:34;;;;;;;3.27;1.32;;;;;;;31.79;23.98;99862.94;2178876;81;21018;-76
2022/07/25 12:32:36;;;;;;;1.50;1.40;;;;;;;31.58;24.12;99856.36;2179626;80;21082;-76
2022/07/25 12:35:41;;;;;;;1.10;1.00;;;;;;;31.51;24.92;99848.59;2178020;80;21024;-76
2022/07/25 12:38:42;;;;;;;2.40;1.30;;;;;;;31.46;24.21;99844.03;2176863;80;21070;-76
2022/07/25 12:41:43;;;;;;;7.70;1.40;;;;;;;31.44;24.41;99835.30;2178937;80;21035;-76
2022/07/25 12:44:45;;;;;;;1.20;1.15;;;;;;;31.62;24.23;99829.91;2179286;80;21123;-76
2022/07/25 12:47:47;;;;;;;7.50;1.30;;;;;;;31.77;24.68;99825.41;2177764;81;20940;-76
2022/07/25 12:50:48;;;;;;;5.55;1.35;;;;;;;31.98;24.74;99814.70;2178347;81;21050;-76
2022/07/25 12:53:49;;;;;;;1.92;1.20;;;;;;;32.22;25.09;99816.27;2177830;81;20971;-76
2022/07/25 12:56:51;;;;;;;1.30;1.10;;;;;;;32.31;24.35;99808.28;2178125;81;21032;-76
2022/07/25 12:59:55;;;;;;;1.62;1.52;;;;;;;32.25;24.74;99804.07;2181162;80;21403;-76
2022/07/25 13:02:56;;;;;;;3.87;1.15;;;;;;;32.29;24.35;99806.98;2178069;80;21043;-76
2022/07/25 13:05:57;;;;;;;1.60;1.32;;;;;;;32.30;24.28;99804.50;2177554;81;20991;-76
2022/07/25 13:09:01;;;;;;;3.37;1.70;;;;;;;32.17;23.77;99810.91;2180250;80;21014;-76
2022/07/25 13:12:03;;;;;;;2.90;1.20;;;;;;;32.01;23.81;99797.61;2179903;80;21038;-76
2022/07/25 13:15:06;;;;;;;1.40;1.30;;;;;;;31.87;24.03;99796.89;2178421;80;21023;-76
2022/07/25 13:18:07;;;;;;;1.62;1.32;;;;;;;31.95;24.76;99793.40;2180247;81;21360;-76
2022/07/25 13:21:09;;;;;;;4.10;1.30;;;;;;;31.99;24.09;99790.82;2180509;80;20976;-76
2022/07/25 13:24:12;;;;;;;4.15;1.45;;;;;;;31.88;24.79;99785.61;2179358;81;21014;-76
2022/07/25 13:27:13;;;;;;;1.67;1.45;;;;;;;31.86;24.28;99773.33;2167953;81;21033;-76
2022/07/25 13:30:15;;;;;;;2.83;1.50;;;;;;;31.89;24.77;99765.84;2179887;81;21065;-76
2022/07/25 13:33:16;;;;;;;3.58;1.32;;;;;;;31.93;23.96;99763.55;2173660;80;20972;-76
2022/07/25 13:36:17;;;;;;;3.10;1.30;;;;;;;31.97;23.67;99750.00;2177091;80;21053;-76
2022/07/25 13:39:21;;;;;;;2.92;1.30;;;;;;;31.97;23.63;99751.38;2184112;81;21451;-74
2022/07/25 13:42:21;;;;;;;3.87;1.30;;;;;;;31.96;24.70;99753.88;2178492;80;21549;-76
2022/07/25 13:45:26;;;;;;;1.65;1.40;;;;;;;32.01;24.11;99748.80;2177358;80;21059;-76
2022/07/25 13:48:28;;;;;;;1.70;1.25;;;;;;;31.99;24.29;99736.78;2176162;80;21036;-76
2022/07/25 13:51:29;;;;;;;4.47;1.32;;;;;;;32.01;24.16;99731.77;2179821;81;21018;-76
2022/07/25 13:54:31;;;;;;;5.30;1.30;;;;;;;31.90;23.88;99738.64;2177490;81;21129;-76
2022/07/25 13:57:33;;;;;;;4.05;1.20;;;;;;;31.82;23.92;99722.42;2178394;81;21070;-76
2022/07/25 14:00:34;;;;;;;1.32;1.22;;;;;;;31.77;24.14;99724.51;2177956;81;21061;-76
2022/07/25 14:03:35;;;;;;;1.80;1.27;;;;;;;31.71;24.05;99715.05;2180399;80;20986;-76
2022/07/25 14:06:37;;;;;;;1.80;1.52;;;;;;;31.71;24.19;99713.67;2178532;81;21542;-76
2022/07/25 14:09:38;;;;;;;3.00;1.50;;;;;;;31.74;24.52;99710.86;2177351;81;20942;-76
2022/07/25 14:12:40;;;;;;;2.95;1.15;;;;;;;31.75;23.54;99708.36;2177350;81;21007;-76
2022/07/25 14:15:41;;;;;;;6.10;1.52;;;;;;;31.70;23.68;99709.30;2176324;81;21537;-76